createdAt,value
2023-05-09T00:01:35.668Z,101144.75
2023-05-09T00:08:58.085Z,101153.63
2023-05-09T00:16:17.257Z,101131.56
2023-05-09T00:23:37.271Z,101134.69
2023-05-09T00:30:55.841Z,101128.78
2023-05-09T00:38:14.322Z,101122.59
2023-05-09T00:45:35.678Z,101119.75
2023-05-09T00:52:54.872Z,101112.09
2023-05-09T01:00:14.418Z,101105.50
2023-05-09T01:07:40.975Z,101112.59
2023-05-09T01:15:05.727Z,101107.00
2023-05-09T01:22:27.347Z,101097.91
2023-05-09T01:29:49.540Z,101086.75
2023-05-09T01:37:08.757Z,101078.97
2023-05-09T01:44:27.150Z,101085.31
2023-05-09T01:51:47.360Z,101083.34
2023-05-09T01:59:07.733Z,101079.44
2023-05-09T02:06:26.769Z,101076.28
2023-05-09T02:13:46.571Z,101075.13
2023-05-09T02:21:05.228Z,101077.97
2023-05-09T02:28:24.269Z,101076.59
2023-05-09T02:35:47.299Z,101077.53
2023-05-09T02:43:05.634Z,101076.72
2023-05-09T02:50:24.213Z,101070.75
2023-05-09T02:57:44.255Z,101058.28
2023-05-09T03:05:03.375Z,101050.03
2023-05-09T03:12:21.858Z,101056.16
2023-05-09T03:19:45.599Z,101055.31
2023-05-09T03:27:04.433Z,101041.47
2023-05-09T03:34:22.987Z,101044.22
2023-05-09T03:41:43.831Z,101045.78
2023-05-09T03:49:02.580Z,101040.41
2023-05-09T03:56:21.495Z,101043.34
2023-05-09T04:03:45.039Z,101040.78
2023-05-09T04:11:07.492Z,101036.63
2023-05-09T04:18:28.246Z,101041.28
2023-05-09T04:25:48.386Z,101047.19
2023-05-09T04:33:07.095Z,101055.97
2023-05-09T04:40:27.056Z,101051.69
2023-05-09T04:47:51.557Z,101046.31
2023-05-09T04:55:10.896Z,101036.28
2023-05-09T05:02:34.186Z,101040.41
2023-05-09T05:09:54.549Z,101031.00
2023-05-09T05:17:14.166Z,101028.81
2023-05-09T05:24:32.612Z,101025.94
2023-05-09T05:31:53.816Z,101041.41
2023-05-09T05:39:12.836Z,101040.47
2023-05-09T05:46:36.645Z,101031.78
2023-05-09T05:53:57.235Z,101026.91
2023-05-09T06:01:17.115Z,101019.50
2023-05-09T06:08:35.684Z,101011.13
2023-05-09T06:16:07.729Z,101004.41
2023-05-09T06:23:34.242Z,100988.84
2023-05-09T06:30:52.791Z,100994.38
2023-05-09T06:38:12.666Z,100996.00
2023-05-09T06:45:31.801Z,100981.09
2023-05-09T06:52:53.092Z,100974.31
2023-05-09T07:00:14.248Z,100967.75
2023-05-09T07:07:32.559Z,100984.13
2023-05-09T07:14:55.835Z,100968.03
2023-05-09T07:22:15.803Z,100979.22
2023-05-09T07:29:34.323Z,100972.25
2023-05-09T07:36:53.222Z,100949.97
2023-05-09T07:44:13.675Z,100942.25
2023-05-09T07:51:37.233Z,100919.13
2023-05-09T07:58:56.367Z,100915.00
2023-05-09T08:06:20.175Z,100915.19
2023-05-09T08:13:39.795Z,100915.00
2023-05-09T08:20:59.993Z,100900.09
2023-05-09T08:28:21.024Z,100885.41
2023-05-09T08:35:42.123Z,100876.47
2023-05-09T08:43:00.943Z,100857.19
2023-05-09T08:50:23.909Z,100855.66
2023-05-09T08:57:42.373Z,100850.28
2023-05-09T09:05:00.768Z,100830.34
2023-05-09T09:12:23.829Z,100837.00
2023-05-09T09:19:42.290Z,100840.44
2023-05-09T09:27:06.644Z,100816.34
2023-05-09T09:34:26.909Z,100814.41
2023-05-09T09:41:45.948Z,100807.59
2023-05-09T09:49:04.085Z,100832.91
2023-05-09T09:56:23.689Z,100802.81
2023-05-09T10:03:42.903Z,100787.81
2023-05-09T10:11:01.504Z,100787.16
2023-05-09T10:18:26.781Z,100783.31
2023-05-09T10:25:48.811Z,100776.97
2023-05-09T10:33:11.461Z,100772.22
2023-05-09T10:40:32.598Z,100752.13
2023-05-09T10:47:53.204Z,100737.59
2023-05-09T10:55:11.502Z,100739.69
2023-05-09T11:02:32.958Z,100710.31
2023-05-09T11:09:53.111Z,100706.63
2023-05-09T11:17:12.991Z,100705.16
2023-05-09T11:24:34.508Z,100681.66
2023-05-09T11:32:08.552Z,100678.81
2023-05-09T11:39:26.828Z,100678.31
2023-05-09T11:46:47.201Z,100655.78
2023-05-09T11:54:07.139Z,100639.06
2023-05-09T12:01:25.791Z,100657.84
2023-05-09T12:08:45.519Z,100624.69
2023-05-09T12:16:03.974Z,100618.78
2023-05-09T12:23:23.460Z,100616.69
2023-05-09T12:30:44.061Z,100592.13
2023-05-09T12:38:02.690Z,100586.50
2023-05-09T12:45:21.342Z,100576.78
2023-05-09T12:52:54.719Z,100564.47
2023-05-09T13:00:24.124Z,100538.75
2023-05-09T13:07:46.389Z,100531.03
2023-05-09T13:15:09.031Z,100533.50
2023-05-09T13:22:27.500Z,100520.38
2023-05-09T13:29:48.028Z,100509.34
2023-05-09T13:37:06.367Z,100489.88
2023-05-09T13:44:26.449Z,100496.00
2023-05-09T13:51:51.614Z,100474.50
2023-05-09T13:59:14.566Z,100468.13
2023-05-09T14:06:33.471Z,100454.50
2023-05-09T14:13:54.272Z,100443.34
2023-05-09T14:21:15.017Z,100433.34
2023-05-09T14:28:33.485Z,100434.91
2023-05-09T14:36:04.396Z,100426.06
2023-05-09T14:43:26.125Z,100412.84
2023-05-09T14:50:54.974Z,100407.63
2023-05-09T14:58:25.171Z,100394.50
2023-05-09T15:05:43.767Z,100391.22
2023-05-09T15:13:07.107Z,100392.34
2023-05-09T15:20:30.550Z,100376.09
2023-05-09T15:27:50.590Z,100364.56
2023-05-09T15:35:09.884Z,100365.25
2023-05-09T15:42:29.683Z,100361.91
2023-05-09T15:49:48.004Z,100365.66
2023-05-09T15:57:07.209Z,100349.81
2023-05-09T16:04:27.067Z,100344.22
2023-05-09T16:11:45.353Z,100324.31
2023-05-09T16:19:03.749Z,100324.19
2023-05-09T16:26:27.398Z,100310.47
2023-05-09T16:33:52.035Z,100291.34
2023-05-09T16:41:10.491Z,100285.75
2023-05-09T16:48:31.032Z,100285.94
2023-05-09T16:55:54.361Z,100276.94
2023-05-09T17:03:19.530Z,100266.75
2023-05-09T17:10:46.072Z,100266.06
2023-05-09T17:18:12.262Z,100255.34
2023-05-09T17:25:40.679Z,100258.34
2023-05-09T17:33:05.408Z,100240.34
2023-05-09T17:40:24.577Z,100247.63
2023-05-09T17:47:56.857Z,100246.97
2023-05-09T17:55:25.690Z,100242.97
2023-05-09T18:02:48.534Z,100252.00
2023-05-09T18:10:09.737Z,100248.16
2023-05-09T18:17:32.414Z,100247.25
2023-05-09T18:25:01.783Z,100242.94
2023-05-09T18:32:32.485Z,100246.34
2023-05-09T18:40:13.366Z,100254.81
2023-05-09T18:47:53.844Z,100263.75
2023-05-09T18:55:23.898Z,100268.69
2023-05-09T19:02:46.768Z,100264.81
2023-05-09T19:10:15.117Z,100262.03
2023-05-09T19:17:45.472Z,100258.59
2023-05-09T19:25:04.328Z,100268.19
2023-05-09T19:32:23.313Z,100266.03
2023-05-09T19:39:46.047Z,100258.09
2023-05-09T19:47:05.578Z,100262.41
2023-05-09T19:54:27.287Z,100259.91
2023-05-09T20:01:49.943Z,100260.06
2023-05-09T20:09:09.097Z,100240.31
2023-05-09T20:16:27.824Z,100246.72
2023-05-09T20:23:48.082Z,100237.00
2023-05-09T20:31:06.713Z,100241.56
2023-05-09T20:38:25.320Z,100241.25
2023-05-09T20:45:46.178Z,100220.78
2023-05-09T20:53:05.181Z,100224.75
2023-05-09T21:00:23.907Z,100224.72
2023-05-09T21:07:44.194Z,100220.59
2023-05-09T21:15:03.570Z,100215.44
2023-05-09T21:23:09.569Z,100211.75
2023-05-09T21:31:02.369Z,100202.78
2023-05-09T21:38:21.211Z,100201.88
2023-05-09T21:45:41.242Z,100201.69
2023-05-09T21:53:01.778Z,100192.00
2023-05-09T22:00:21.304Z,100186.19
2023-05-09T22:07:43.243Z,100189.09
2023-05-09T22:15:03.515Z,100185.72
2023-05-09T22:22:22.137Z,100189.34
2023-05-09T22:29:40.460Z,100184.78
2023-05-09T22:37:00.029Z,100176.66
2023-05-09T22:44:18.183Z,100177.13
2023-05-09T22:51:36.532Z,100176.44
2023-05-09T22:58:56.309Z,100172.22
2023-05-09T23:06:14.505Z,100164.13
2023-05-09T23:13:32.675Z,100150.25
2023-05-09T23:20:52.223Z,100143.72
2023-05-09T23:28:10.432Z,100141.84
2023-05-09T23:35:30.853Z,100143.56
2023-05-09T23:42:50.589Z,100141.53
2023-05-09T23:50:09.926Z,100125.34
2023-05-09T23:57:28.017Z,100121.66
